Sumner, GA (31789)

11:43 AM EDT on October 01, 2014 (GMT -0400)
Worth County High School | Change Station
CLOSE
Current Station
Personal Weather Station
Location: Sylvester, GA
Elevation: 436 ft
Nearby Weather Stations

Elev 436 ft 31.55 °N, 83.84 °W | Updated 3 minutes ago

Overcast
Overcast
76.0 °F
Feels Like 77 °F
N
2.0
Wind Variable Wind from West
Gusts 2.0 mph

Today
High -- | Low -- °F
--% Chance of Precip.
Yesterday
High -- | Low -- °F
Precip. -- in
7:28 AM 7:19 PM
Waxing Crescent, 48% visible
Pressure 29.93 in
Visibility 10.0 miles
Clouds Overcast 700 ft
Heat Index 77 °F
Dew Point 68 °F
Humidity 77%
Rainfall 0.00 in
Snow Depth Not available.
UV 2 out of 12
Pollen 6.10 out of 12
Air Quality Not available.
Flu Activity Not available.
METAR KTMA 301450Z AUTO 01004KT 10SM OVC007 21/20 A2993 RMK AO2 T02080195 TSNO

More Conditions Fewer Conditions

Pressure 29.93 in
Visibility 10.0 miles
Clouds Overcast 700 ft
Heat Index 77 °F
Dew Point 68 °F
Humidity 77%
Rainfall 0.00 in
Snow Depth Not available.
UV 2 out of 12
Pollen 6.10 out of 12
Air Quality Not available.
Flu Activity Not available.
METAR KTMA 301450Z AUTO 01004KT 10SM OVC007 21/20 A2993 RMK AO2 T02080195 TSNO

More Conditions Fewer Conditions

10-Day Weather Forecast

Almanac

Astronomy

Oct. 01, 2014 Rise Set
Actual Time 7:28 AM EDT 7:19 PM EDT
Civil Twilight 7:04 AM EDT 7:44 PM EDT
Nautical Twilight 6:36 AM EDT 8:12 PM EDT
Astronomical Twilight 6:07 AM EDT 8:40 PM EDT
Moon 2:13 PM EDT 12:06 AM EDT
Length of Visible Light 12h 39m
Length of Day
11h 51m
Tomorrow will be 1m 55s shorter.
Waxing Crescent, 48% of the Moon is Illuminated
Today
Waxing Crescent
Oct 1
First Quarter
Oct 8
Full
Oct 15
Last Quarter
Oct 23
New

Today's Extremes

State Highs State Lows

Community

WunderPhotos

Upload Photos

1,757,967 photos uploaded!

Nearby

Snow Depth

Station Depth Elevation
No new snow has been reported.

Earthquake Activity

City Distance Mag. Time & Date
No recent earthquake activity has been reported nearby.
Minimum magnitude displayed is 2.5.

Coastal Water Temperatures

Place Temperature
No Stations Reporting

Nearby Weather Stations